Time;durP1;ratioP1;P1;durP2;ratioP2;P2;SDS_P1;SDS_P2;PMS_P1;PMS_P2;Temp;Humidity;BMP_temperature;BMP_pressure;BME280_temperature;BME280_humidity;BME280_pressure;Samples;Min_cycle;Max_cycle;Signal;HPM_P1;HPM_P2
2021/03/26 00:02:05;;;;;;;228.27;120.77;;;;;;;5.67;66.00;100765.59;2150910;82;31193;-68
2021/03/26 00:05:15;;;;;;;225.40;119.05;;;;;;;5.61;66.26;100767.49;2153352;82;33073;-68
2021/03/26 00:08:19;;;;;;;232.98;119.93;;;;;;;5.57;66.37;100771.55;2152534;82;29219;-68
2021/03/26 00:11:25;;;;;;;218.27;115.60;;;;;;;5.53;66.49;100764.11;2153198;82;27848;-67
2021/03/26 00:14:28;;;;;;;224.65;116.12;;;;;;;5.50;66.50;100764.64;2153423;82;29790;-67
2021/03/26 00:17:31;;;;;;;220.27;114.00;;;;;;;5.44;66.34;100767.84;2109309;84;32214;-68
2021/03/26 00:20:33;;;;;;;219.60;116.47;;;;;;;5.39;66.34;100770.17;2083402;85;33123;-69
2021/03/26 00:23:36;;;;;;;217.32;113.85;;;;;;;5.30;66.31;100767.25;2090869;84;29208;-68
2021/03/26 00:26:39;;;;;;;218.73;110.72;;;;;;;5.23;66.66;100762.52;2116685;84;28164;-69
2021/03/26 00:29:42;;;;;;;218.33;107.47;;;;;;;5.16;66.60;100759.55;2116848;83;28819;-68
2021/03/26 00:32:44;;;;;;;202.13;104.25;;;;;;;5.13;66.86;100760.95;2080027;85;31217;-68
2021/03/26 00:35:47;;;;;;;196.00;103.55;;;;;;;5.14;67.20;100767.55;2092048;85;33691;-68
2021/03/26 00:38:49;;;;;;;202.38;103.75;;;;;;;5.14;67.06;100760.02;2077678;85;30130;-68
2021/03/26 00:41:51;;;;;;;190.35;102.42;;;;;;;5.14;66.83;100767.55;2084434;85;27758;-68
2021/03/26 00:44:53;;;;;;;210.35;105.00;;;;;;;5.13;66.72;100765.80;2081243;85;28842;-65
2021/03/26 00:47:55;;;;;;;210.35;107.80;;;;;;;5.13;66.77;100766.27;2077544;85;32412;-67
2021/03/26 00:51:01;;;;;;;202.68;108.25;;;;;;;5.10;66.71;100761.88;2077610;85;33191;-68
2021/03/26 00:54:03;;;;;;;;;;;;;;;5.07;66.94;100761.06;2111592;84;29307;-64
2021/03/26 00:57:06;;;;;;;205.37;106.17;;;;;;;5.03;66.74;100766.89;2114397;84;27737;-68
2021/03/26 01:00:14;;;;;;;195.60;101.67;;;;;;;4.96;66.88;100762.59;2114323;84;29703;-67
2021/03/26 01:03:17;;;;;;;211.07;107.63;;;;;;;4.90;66.74;100763.59;2114098;82;31148;-68
2021/03/26 01:06:20;;;;;;;209.95;104.27;;;;;;;4.84;66.89;100757.05;2114317;84;33099;-66
2021/03/26 01:09:23;;;;;;;210.68;104.92;;;;;;;4.78;66.94;100757.19;2114552;84;29151;-67
2021/03/26 01:12:25;;;;;;;202.65;102.72;;;;;;;4.72;66.96;100756.82;2114374;84;27665;-65
2021/03/26 01:15:29;;;;;;;207.05;106.80;;;;;;;4.66;66.96;100762.26;2113424;84;28844;-64
2021/03/26 01:18:38;;;;;;;206.97;101.87;;;;;;;4.58;67.10;100761.06;2115545;83;31155;-64
2021/03/26 01:21:41;;;;;;;209.47;95.28;;;;;;;4.52;67.14;100761.16;2130233;83;33649;-67
2021/03/26 01:24:43;;;;;;;187.95;90.97;;;;;;;4.49;67.41;100764.75;2148782;82;30487;-66
2021/03/26 01:27:45;;;;;;;195.10;96.25;;;;;;;4.47;67.56;100769.20;2121235;82;27644;-65
2021/03/26 01:30:49;;;;;;;201.70;97.95;;;;;;;4.47;67.49;100767.88;2113018;84;28810;-66
2021/03/26 01:33:52;;;;;;;198.75;102.47;;;;;;;4.47;67.48;100764.36;2109918;84;32285;-67
2021/03/26 01:36:54;;;;;;;211.22;102.62;;;;;;;4.48;67.77;100765.66;2109694;84;34375;-68
2021/03/26 01:39:56;;;;;;;189.50;95.40;;;;;;;4.51;68.02;100764.28;2127547;83;30504;-66
2021/03/26 01:43:09;;;;;;;200.32;97.80;;;;;;;4.53;67.94;100761.59;2143915;83;27838;-65
2021/03/26 01:46:33;;;;;;;198.90;99.20;;;;;;;4.52;67.78;100763.81;2143758;83;28832;-65
2021/03/26 01:49:35;;;;;;;189.20;93.70;;;;;;;4.51;67.92;100757.65;2156021;82;31159;-67
2021/03/26 01:52:38;;;;;;;201.55;102.25;;;;;;;4.50;68.09;100763.85;2155908;82;33514;-66
2021/03/26 01:55:44;;;;;;;193.02;102.40;;;;;;;4.48;68.14;100762.11;2139491;82;29043;-65
2021/03/26 01:58:47;;;;;;;190.05;95.47;;;;;;;4.46;68.67;100759.49;2125063;82;27642;-66
2021/03/26 02:01:54;;;;;;;183.12;90.30;;;;;;;4.46;69.26;100756.84;2155993;82;28832;-66
2021/03/26 02:04:57;;;;;;;173.65;88.70;;;;;;;4.50;69.58;100755.00;2155607;82;32074;-67
2021/03/26 02:07:59;;;;;;;185.32;92.42;;;;;;;4.58;69.58;100755.77;2144678;82;34433;-66
2021/03/26 02:11:19;;;;;;;170.00;90.40;;;;;;;4.69;69.55;100751.59;2124351;82;29211;-67
2021/03/26 02:14:26;;;;;;;182.65;93.27;;;;;;;4.79;69.54;100750.52;2149182;81;28156;-65
2021/03/26 02:17:32;;;;;;;178.38;92.90;;;;;;;4.90;69.71;100750.31;2136127;82;28840;-67
2021/03/26 02:20:39;;;;;;;175.27;91.05;;;;;;;5.01;69.63;100749.65;2136706;81;32047;-67
2021/03/26 02:23:42;;;;;;;176.53;92.35;;;;;;;5.10;69.69;100744.61;2140203;82;33189;-68
2021/03/26 02:26:49;;;;;;;177.53;90.90;;;;;;;5.21;69.76;100753.70;2138256;82;29172;-68
2021/03/26 02:29:52;;;;;;;166.55;89.05;;;;;;;5.29;69.75;100748.23;2119183;84;27779;-66
2021/03/26 02:32:55;;;;;;;174.95;89.47;;;;;;;5.36;69.69;100752.52;2119043;84;29286;-67
2021/03/26 02:36:20;;;;;;;173.97;89.95;;;;;;;5.42;69.72;100751.52;2118885;84;31165;-65
2021/03/26 02:39:33;;;;;;;164.22;83.67;;;;;;;5.47;69.69;100756.25;2155474;82;34039;-65
2021/03/26 02:42:35;;;;;;;155.50;82.78;;;;;;;5.53;69.76;100755.28;2154935;82;29223;-66
2021/03/26 02:45:42;;;;;;;160.10;85.03;;;;;;;5.58;69.81;100754.27;2152932;82;27657;-65
2021/03/26 02:49:08;;;;;;;168.65;88.07;;;;;;;5.68;69.79;100755.37;2155950;82;28827;-67
2021/03/26 02:52:14;;;;;;;;;;;;;;;5.76;69.80;100756.95;2158657;82;31225;-66
2021/03/26 02:55:53;;;;;;;124.42;64.17;;;;;;;5.85;69.93;100759.00;2155745;82;37420;-67
2021/03/26 02:59:01;;;;;;;159.20;84.03;;;;;;;5.86;69.78;100761.62;2149114;82;29645;-66
2021/03/26 03:02:04;;;;;;;165.20;87.35;;;;;;;5.91;69.89;100762.40;2124797;82;27643;-65
2021/03/26 03:05:35;;;;;;;163.18;85.35;;;;;;;5.99;69.90;100772.86;2165759;82;28786;-64
2021/03/26 03:08:37;;;;;;;164.25;87.27;;;;;;;6.03;69.80;100776.34;2109440;84;31154;-68
2021/03/26 03:11:47;;;;;;;168.60;91.37;;;;;;;6.06;69.76;100778.47;2118764;84;33549;-68
2021/03/26 03:15:14;;;;;;;169.30;88.62;;;;;;;6.09;69.70;100785.52;2156005;82;29169;-66
2021/03/26 03:18:24;;;;;;;165.12;86.02;;;;;;;6.07;69.69;100789.53;2156073;82;27681;-64
2021/03/26 03:21:37;;;;;;;170.40;89.00;;;;;;;6.07;69.69;100789.53;2119076;84;30141;-65
2021/03/26 03:24:46;;;;;;;167.10;84.00;;;;;;;6.10;69.77;100792.59;2118721;84;31152;-68
2021/03/26 03:28:08;;;;;;;179.20;90.60;;;;;;;6.15;69.77;100786.69;2117577;84;33985;-65
2021/03/26 03:31:25;;;;;;;178.38;93.42;;;;;;;6.15;69.67;100786.69;2118396;84;29151;-66
2021/03/26 03:34:40;;;;;;;182.07;92.20;;;;;;;6.18;69.75;100783.97;2118394;84;27681;-63
2021/03/26 03:38:09;;;;;;;177.15;94.15;;;;;;;6.20;69.89;100792.79;2118400;84;28910;-68
2021/03/26 03:41:23;;;;;;;184.60;101.05;;;;;;;6.24;69.99;100786.93;2060626;84;31164;-65
2021/03/26 03:44:38;;;;;;;175.22;93.55;;;;;;;6.26;70.24;100785.11;2078592;84;33078;-66
2021/03/26 03:48:07;;;;;;;171.20;94.72;;;;;;;6.30;70.40;100788.56;2090741;82;29588;-66
2021/03/26 03:51:19;;;;;;;172.17;90.87;;;;;;;6.28;70.34;100794.41;2113945;84;27694;-65
2021/03/26 03:54:35;;;;;;;183.87;89.95;;;;;;;6.26;70.65;100783.78;2100454;84;29937;-67
2021/03/26 03:57:44;;;;;;;165.75;86.50;;;;;;;6.26;70.59;100779.80;2083238;84;31154;-69
2021/03/26 04:01:07;;;;;;;169.45;93.12;;;;;;;6.25;70.75;100771.86;2082491;84;34060;-64
2021/03/26 04:04:43;;;;;;;180.57;94.83;;;;;;;6.32;71.11;100758.81;2248411;78;27754;-64
2021/03/26 04:08:09;;;;;;;182.68;95.57;;;;;;;6.28;70.99;100757.16;2221373;79;27689;-66
2021/03/26 04:11:25;;;;;;;188.15;97.33;;;;;;;6.27;71.08;100764.72;2228473;79;29374;-68
2021/03/26 04:14:38;;;;;;;173.38;93.52;;;;;;;6.33;71.28;100773.86;2226755;79;31140;-68
2021/03/26 04:17:57;;;;;;;169.85;93.25;;;;;;;6.31;71.13;100772.58;2150118;82;33109;-70
2021/03/26 04:21:17;;;;;;;168.70;92.00;;;;;;;6.33;71.33;100784.06;2121469;82;29302;-67
2021/03/26 04:24:36;;;;;;;167.37;98.43;;;;;;;6.38;71.35;100775.50;2267573;77;32339;-66
2021/03/26 04:27:46;;;;;;;164.88;89.95;;;;;;;6.46;71.30;100786.42;2206891;79;27733;-65
2021/03/26 04:31:02;;;;;;;174.68;95.07;;;;;;;6.50;71.18;100787.62;2200319;80;28798;-67
2021/03/26 04:34:05;;;;;;;164.67;89.05;;;;;;;6.57;71.41;100779.03;2191890;79;31160;-69
2021/03/26 04:37:41;;;;;;;171.93;92.27;;;;;;;6.63;71.36;100771.34;2188956;79;33217;-68
2021/03/26 04:40:48;;;;;;;163.25;91.67;;;;;;;6.65;71.38;100779.73;2189665;79;28539;-69
2021/03/26 04:43:55;;;;;;;171.25;91.50;;;;;;;6.68;71.44;100775.66;2189477;81;27672;-69
2021/03/26 04:47:03;;;;;;;170.68;92.40;;;;;;;6.72;71.40;100781.77;2187041;79;28829;-69
2021/03/26 04:50:28;;;;;;;168.75;89.32;;;;;;;6.74;71.57;100777.72;2189673;79;31134;-68
2021/03/26 04:53:42;;;;;;;168.20;90.03;;;;;;;6.75;71.47;100783.03;2189579;80;33119;-71
2021/03/26 04:57:07;;;;;;;169.00;91.90;;;;;;;6.67;71.35;100780.56;2251024;77;27760;-68
2021/03/26 05:00:15;;;;;;;178.85;93.95;;;;;;;6.54;71.46;100771.12;2217326;80;27674;-66
2021/03/26 05:03:36;;;;;;;174.42;91.65;;;;;;;6.45;71.39;100770.92;2207821;80;28822;-67
2021/03/26 05:06:43;;;;;;;165.68;86.63;;;;;;;6.41;71.41;100777.66;2194526;80;31247;-69
2021/03/26 05:09:48;;;;;;;160.15;87.00;;;;;;;6.38;71.45;100774.16;2217123;80;33148;-67
2021/03/26 05:12:55;;;;;;;162.35;86.35;;;;;;;6.41;71.52;100777.23;2192772;80;28537;-68
2021/03/26 05:16:01;;;;;;;170.02;91.47;;;;;;;6.39;71.50;100771.06;2217437;80;27649;-68
2021/03/26 05:19:27;;;;;;;178.38;93.52;;;;;;;6.38;71.53;100773.30;2215973;80;28764;-69
2021/03/26 05:23:06;;;;;;;168.43;92.88;;;;;;;6.37;71.64;100771.55;2217236;80;31916;-68
2021/03/26 05:26:09;;;;;;;169.20;92.22;;;;;;;6.35;71.57;100768.05;2197250;80;33658;-67
2021/03/26 05:29:11;;;;;;;169.65;92.55;;;;;;;6.34;71.67;100768.52;2217059;80;28856;-67
2021/03/26 05:32:28;;;;;;;171.10;92.00;;;;;;;6.39;71.84;100773.72;2201049;80;27739;-68
2021/03/26 05:35:51;;;;;;;160.65;85.07;;;;;;;6.42;71.73;100779.42;2178643;81;29007;-67
2021/03/26 05:38:59;;;;;;;158.52;83.40;;;;;;;6.48;71.78;100783.27;2185176;80;31873;-68
2021/03/26 05:42:20;;;;;;;144.05;79.62;;;;;;;6.53;71.75;100780.91;2213006;80;33117;-68
2021/03/26 05:45:46;;;;;;;153.90;82.37;;;;;;;6.58;71.63;100777.27;2179015;80;29813;-69
2021/03/26 05:48:55;;;;;;;;;;;;;;;6.61;71.63;100785.17;2181815;80;27769;-67
2021/03/26 05:52:25;;;;;;;165.40;86.28;;;;;;;6.62;71.55;100778.47;2185877;80;29754;-68
2021/03/26 05:55:41;;;;;;;154.50;85.70;;;;;;;6.68;71.59;100782.31;2198619;80;32059;-68
2021/03/26 05:59:12;;;;;;;161.40;86.10;;;;;;;6.78;71.69;100788.72;2178842;81;34448;-67
2021/03/26 06:03:02;;;;;;;154.10;84.65;;;;;;;6.87;71.64;100782.28;2193299;80;29732;-67
2021/03/26 06:06:43;;;;;;;154.95;84.00;;;;;;;6.93;71.51;100797.64;2184921;80;27740;-69
2021/03/26 06:10:17;;;;;;;156.63;87.80;;;;;;;7.03;71.47;100790.28;2183697;80;30517;-69
2021/03/26 06:13:56;;;;;;;149.47;78.87;;;;;;;7.13;71.50;100790.43;2185753;80;31129;-65
2021/03/26 06:17:22;;;;;;;143.35;77.85;;;;;;;7.21;71.40;100800.02;2208881;80;34018;-68
2021/03/26 06:20:40;;;;;;;;;;;;;;;7.35;71.41;100800.50;2207483;80;28857;-68
2021/03/26 06:24:33;;;;;;;148.82;81.57;;;;;;;7.50;71.13;100799.20;2216216;80;27704;-67
2021/03/26 06:27:59;;;;;;;143.40;82.20;;;;;;;7.63;71.37;100795.70;2216567;80;28857;-69
2021/03/26 06:31:16;;;;;;;;;;;;;;;7.80;71.30;100797.88;2219029;80;31142;-68
2021/03/26 06:35:07;;;;;;;142.37;78.50;;;;;;;7.99;71.28;100798.18;2215272;80;33969;-68
2021/03/26 06:38:44;;;;;;;155.18;80.57;;;;;;;8.11;70.83;100800.08;2186953;80;29219;-66
2021/03/26 06:42:27;;;;;;;148.00;81.67;;;;;;;8.24;70.82;100798.77;2205787;80;27830;-65
2021/03/26 06:46:02;;;;;;;135.65;78.72;;;;;;;8.45;70.78;100798.97;2181519;80;28809;-68
2021/03/26 06:49:27;;;;;;;112.27;63.07;;;;;;;8.53;70.08;100793.41;2177899;80;31148;-65
2021/03/26 06:53:12;;;;;;;150.68;83.22;;;;;;;8.70;70.04;100799.53;2177936;80;33184;-66
2021/03/26 06:56:45;;;;;;;139.37;80.28;;;;;;;8.90;69.81;100802.84;2181983;78;28854;-67
2021/03/26 07:00:02;;;;;;;149.68;80.40;;;;;;;9.05;69.60;100791.62;2189938;80;27666;-66
2021/03/26 07:03:35;;;;;;;131.27;73.75;;;;;;;9.18;68.98;100794.73;2204499;80;29934;-65
2021/03/26 07:07:12;;;;;;;135.07;75.60;;;;;;;9.36;68.62;100796.34;2277480;77;30892;-66
2021/03/26 07:10:29;;;;;;;140.00;75.92;;;;;;;9.49;68.97;100804.31;2225463;78;27685;-67
2021/03/26 07:14:25;;;;;;;130.22;73.17;;;;;;;9.72;68.69;100807.45;2241938;78;28829;-67
2021/03/26 07:17:56;;;;;;;136.20;74.85;;;;;;;9.98;68.61;100801.59;2237688;78;32106;-64
2021/03/26 07:21:12;;;;;;;126.95;73.85;;;;;;;10.45;68.72;100801.11;2266353;78;34003;-65
2021/03/26 07:24:51;;;;;;;129.23;74.20;;;;;;;10.79;68.14;100810.41;2266627;78;28547;-63
2021/03/26 07:28:32;;;;;;;121.65;71.62;;;;;;;10.98;67.21;100802.94;2250809;78;27696;-62
2021/03/26 07:32:09;;;;;;;125.80;72.67;;;;;;;11.20;67.15;100801.03;2256466;78;29936;-65
2021/03/26 07:36:08;;;;;;;116.65;67.20;;;;;;;11.46;66.89;100800.35;2240125;78;31114;-65
2021/03/26 07:39:27;;;;;;;115.15;68.07;;;;;;;11.77;65.68;100794.91;2260668;78;33977;-67
2021/03/26 07:42:47;;;;;;;126.45;72.70;;;;;;;12.13;65.23;100796.83;2260104;78;30088;-73
2021/03/26 07:46:28;;;;;;;120.35;68.33;;;;;;;12.55;65.30;100801.97;2219838;78;27689;-67
2021/03/26 07:49:58;;;;;;;114.92;69.25;;;;;;;13.09;64.86;100795.68;2215130;80;28009;-67
2021/03/26 07:53:45;;;;;;;109.40;64.75;;;;;;;13.72;63.95;100798.20;2259984;78;31121;-67
2021/03/26 07:57:25;;;;;;;99.25;62.90;;;;;;;14.19;62.98;100795.16;2185656;81;34193;-68
2021/03/26 08:00:59;;;;;;;104.65;65.37;;;;;;;14.73;62.55;100799.66;2158776;81;28711;-67
2021/03/26 08:04:18;;;;;;;108.30;68.37;;;;;;;15.28;61.30;100796.45;2157890;81;27631;-68
2021/03/26 08:07:40;;;;;;;109.63;71.35;;;;;;;15.87;61.02;100791.45;2185569;81;28887;-67
2021/03/26 08:10:53;;;;;;;106.78;66.45;;;;;;;16.23;59.59;100798.15;2184710;81;32125;-68
2021/03/26 08:14:23;;;;;;;101.72;63.15;;;;;;;16.53;59.23;100791.20;2170837;81;33127;-68
2021/03/26 08:17:48;;;;;;;90.87;56.00;;;;;;;16.63;58.25;100795.98;2147254;82;28860;-68
2021/03/26 08:21:23;;;;;;;105.95;66.57;;;;;;;16.80;57.69;100787.59;2248586;78;32398;-67
2021/03/26 08:25:31;;;;;;;103.25;65.17;;;;;;;16.87;56.93;100788.03;2224773;79;28146;-67
2021/03/26 08:28:55;;;;;;;106.67;69.27;;;;;;;17.00;56.46;100786.75;2123611;83;28818;-67
2021/03/26 08:32:47;;;;;;;94.67;63.28;;;;;;;17.14;55.67;100785.30;2252248;77;32352;-67
2021/03/26 08:36:16;;;;;;;107.75;65.78;;;;;;;16.94;55.01;100791.19;2214364;80;27669;-68
2021/03/26 08:39:44;;;;;;;102.15;63.92;;;;;;;16.80;55.85;100793.47;2177938;81;28818;-67
2021/03/26 08:42:50;;;;;;;102.58;66.35;;;;;;;16.58;54.77;100790.00;2192384;80;31399;-67
2021/03/26 08:46:32;;;;;;;108.40;64.05;;;;;;;16.31;54.90;100789.03;2212914;80;33106;-67
2021/03/26 08:50:12;;;;;;;92.53;60.17;;;;;;;16.19;55.00;100789.84;2212330;80;29436;-67
2021/03/26 08:53:46;;;;;;;95.77;59.20;;;;;;;16.12;54.75;100789.88;2046779;86;27743;-67
2021/03/26 08:57:01;;;;;;;89.72;56.35;;;;;;;16.03;54.98;100788.64;2046843;86;28839;-67
2021/03/26 09:00:21;;;;;;;98.12;57.93;;;;;;;16.02;54.74;100793.16;2046893;86;32075;-68
2021/03/26 09:03:45;;;;;;;79.65;49.30;;;;;;;16.07;54.91;100791.04;2018162;88;33107;-69
2021/03/26 09:07:01;;;;;;;75.72;49.00;;;;;;;16.05;52.73;100789.41;2030778;84;28891;-68
2021/03/26 09:10:59;;;;;;;93.92;54.63;;;;;;;15.97;53.15;100789.87;2098396;84;27677;-68
2021/03/26 09:14:24;;;;;;;93.60;55.88;;;;;;;15.83;53.11;100789.41;2098308;84;28816;-69
2021/03/26 09:17:37;;;;;;;87.57;52.15;;;;;;;15.85;52.40;100790.64;2018412;88;31154;-69
2021/03/26 09:21:32;;;;;;;89.95;51.10;;;;;;;15.93;52.47;100785.66;2248528;78;32478;-69
2021/03/26 09:25:02;;;;;;;75.47;47.03;;;;;;;15.86;52.37;100785.66;2228408;79;27695;-68
2021/03/26 09:28:13;;;;;;;87.62;48.45;;;;;;;15.86;52.00;100796.00;2228588;79;28796;-67
2021/03/26 09:31:24;;;;;;;72.40;41.68;;;;;;;15.86;52.59;100793.77;2228355;79;31128;-68
2021/03/26 09:34:37;;;;;;;86.37;47.35;;;;;;;15.93;51.49;100789.72;2227835;78;33096;-67
2021/03/26 09:37:54;;;;;;;79.75;47.45;;;;;;;15.93;51.92;100789.72;2193989;80;28532;-66
2021/03/26 09:41:19;;;;;;;81.63;48.58;;;;;;;15.94;52.32;100789.61;2224612;79;27722;-69
2021/03/26 09:44:34;;;;;;;76.85;45.30;;;;;;;15.97;52.04;100782.27;2226929;79;28922;-66
2021/03/26 09:47:54;;;;;;;74.55;44.77;;;;;;;16.00;51.93;100785.63;2228512;79;31124;-67
2021/03/26 09:51:26;;;;;;;74.32;45.43;;;;;;;16.05;51.34;100782.16;2183859;81;33585;-67
2021/03/26 09:54:42;;;;;;;74.47;43.98;;;;;;;15.91;50.95;100782.19;2184303;81;28858;-67
2021/03/26 09:58:08;;;;;;;79.10;46.58;;;;;;;15.96;51.60;100785.47;2184494;81;27650;-68
2021/03/26 10:01:19;;;;;;;75.67;45.45;;;;;;;16.08;51.60;100782.44;2186374;79;28798;-67
2021/03/26 10:04:26;;;;;;;75.05;45.75;;;;;;;16.07;50.86;100768.53;2194993;80;30631;-67
2021/03/26 10:07:49;;;;;;;72.22;42.88;;;;;;;16.14;50.99;100774.41;2222871;80;33128;-67
2021/03/26 10:10:50;;;;;;;81.60;44.93;;;;;;;16.18;51.09;100771.89;2222673;80;28855;-67
2021/03/26 10:13:57;;;;;;;70.30;40.73;;;;;;;16.27;51.49;100771.30;2197305;80;27687;-66
2021/03/26 10:17:43;;;;;;;71.92;39.20;;;;;;;16.31;49.16;100764.70;2251369;78;32343;-68
2021/03/26 10:21:05;;;;;;;54.77;35.30;;;;;;;16.23;49.50;100761.15;2226597;80;27661;-67
2021/03/26 10:24:22;;;;;;;59.35;33.20;;;;;;;16.37;49.82;100758.89;2182819;81;28866;-67
2021/03/26 10:27:31;;;;;;;59.15;34.05;;;;;;;16.52;49.91;100752.06;2145301;82;32110;-68
2021/03/26 10:30:44;;;;;;;62.13;35.92;;;;;;;16.62;49.09;100746.44;2199507;80;33183;-66
2021/03/26 10:33:56;;;;;;;50.38;29.07;;;;;;;16.55;47.64;100747.30;2198232;80;28530;-66
2021/03/26 10:37:39;;;;;;;66.35;42.62;;;;;;;16.52;47.21;100745.30;2114901;83;27833;-64
2021/03/26 10:41:04;;;;;;;48.00;28.75;;;;;;;16.55;47.65;100748.66;2132656;82;28896;-65
2021/03/26 10:44:44;;;;;;;52.83;30.68;;;;;;;16.67;47.97;100742.91;2206824;80;32069;-68
2021/03/26 10:47:57;;;;;;;45.52;26.85;;;;;;;16.76;47.72;100742.77;2225087;80;33116;-68
2021/03/26 10:51:20;;;;;;;47.73;30.43;;;;;;;16.83;47.22;100730.56;2225073;80;30144;-68
2021/03/26 10:54:54;;;;;;;51.75;30.65;;;;;;;16.88;47.10;100731.59;2225050;80;27659;-69
2021/03/26 10:58:06;;;;;;;46.98;27.27;;;;;;;16.93;47.02;100721.32;2225183;80;28811;-68
2021/03/26 11:01:18;;;;;;;54.90;33.42;;;;;;;16.94;46.63;100723.05;2224709;80;31534;-68
2021/03/26 11:04:35;;;;;;;54.27;33.30;;;;;;;17.01;46.74;100718.95;2212680;80;33971;-68
2021/03/26 11:07:43;;;;;;;49.67;31.48;;;;;;;17.07;46.77;100713.59;2192108;80;29059;-67
2021/03/26 11:11:06;;;;;;;53.28;32.85;;;;;;;17.08;45.63;100708.56;2223584;80;27726;-68
2021/03/26 11:14:41;;;;;;;57.60;35.08;;;;;;;16.99;46.00;100703.30;2213209;80;28792;-67
2021/03/26 11:18:16;;;;;;;52.30;32.75;;;;;;;16.96;46.41;100701.31;2224208;80;31148;-68
2021/03/26 11:21:19;;;;;;;51.15;32.95;;;;;;;17.03;46.93;100693.63;2049248;86;34488;-59
2021/03/26 11:24:22;;;;;;;49.10;31.40;;;;;;;17.06;46.24;100695.62;2034186;87;30211;-59
2021/03/26 11:27:30;;;;;;;48.33;31.65;;;;;;;17.03;45.61;100693.16;2027876;87;28363;-60
2021/03/26 11:30:52;;;;;;;50.95;31.57;;;;;;;17.01;45.80;100687.83;2072726;85;28813;-59
2021/03/26 11:34:19;;;;;;;51.18;31.52;;;;;;;17.00;45.78;100682.54;2072849;85;31165;-59
2021/03/26 11:37:38;;;;;;;50.08;31.40;;;;;;;16.98;45.50;100677.72;2072660;85;33094;-60
2021/03/26 11:41:04;;;;;;;45.35;28.75;;;;;;;17.04;45.94;100682.70;2073832;84;29708;-60
2021/03/26 11:44:09;;;;;;;45.25;29.90;;;;;;;17.11;45.65;100685.84;2075029;84;27820;-60
2021/03/26 11:47:28;;;;;;;48.95;30.45;;;;;;;17.14;45.58;100679.72;2033676;87;29629;-60
2021/03/26 11:50:58;;;;;;;50.55;31.85;;;;;;;17.10;45.12;100668.72;2342663;76;32365;-59
2021/03/26 11:54:42;;;;;;;52.43;30.88;;;;;;;17.05;44.90;100678.14;2306660;77;27628;-59
2021/03/26 11:57:56;;;;;;;50.73;32.20;;;;;;;17.03;45.21;100669.27;2274836;77;28814;-60
2021/03/26 12:01:04;;;;;;;57.27;33.80;;;;;;;17.03;45.22;100665.20;2264825;78;31144;-60
2021/03/26 12:04:22;;;;;;;43.15;28.40;;;;;;;17.01;44.71;100664.82;2264590;77;34116;-61
2021/03/26 12:07:54;;;;;;;47.48;29.77;;;;;;;16.99;44.95;100660.00;2263948;78;29482;-61
2021/03/26 12:11:07;;;;;;;51.35;33.40;;;;;;;17.03;45.45;100653.02;2257039;78;28264;-60
2021/03/26 12:14:23;;;;;;;52.50;31.57;;;;;;;17.00;45.56;100652.27;2264754;78;29223;-60
2021/03/26 12:17:33;;;;;;;47.40;28.27;;;;;;;17.00;45.46;100640.58;2264188;77;31953;-60
2021/03/26 12:20:41;;;;;;;48.42;31.25;;;;;;;16.99;45.23;100637.50;2290070;77;33995;-60
2021/03/26 12:23:55;;;;;;;47.67;29.90;;;;;;;17.01;45.22;100640.97;2298128;77;29607;-60
2021/03/26 12:27:14;;;;;;;41.15;26.55;;;;;;;17.04;44.74;100632.63;2298051;77;27582;-59
2021/03/26 12:30:46;;;;;;;50.12;29.07;;;;;;;17.04;44.79;100627.69;2297987;77;29235;-60
2021/03/26 12:34:10;;;;;;;44.75;25.45;;;;;;;17.06;44.87;100625.73;2249787;78;32124;-61
2021/03/26 12:37:17;;;;;;;34.23;21.68;;;;;;;17.14;44.29;100620.63;2180295;81;33110;-59
2021/03/26 12:40:57;;;;;;;38.33;23.02;;;;;;;17.21;44.60;100615.16;2234875;78;29740;-59
2021/03/26 12:44:35;;;;;;;44.65;27.13;;;;;;;17.26;44.14;100614.34;2216238;80;27762;-63
2021/03/26 12:47:53;;;;;;;45.05;25.25;;;;;;;17.33;44.84;100610.69;2234184;78;30241;-67
2021/03/26 12:50:59;;;;;;;41.28;24.63;;;;;;;17.41;44.94;100604.20;2263754;78;31168;-65
2021/03/26 12:54:18;;;;;;;29.67;18.90;;;;;;;17.50;44.31;100597.75;2262828;78;33307;-66
2021/03/26 12:57:32;;;;;;;41.13;22.62;;;;;;;17.40;43.34;100571.83;2264066;78;28141;-67
2021/03/26 13:00:51;;;;;;;33.20;20.52;;;;;;;17.55;43.53;100595.55;2244687;77;27745;-59
2021/03/26 13:04:33;;;;;;;34.73;21.12;;;;;;;17.54;43.00;100596.05;2202652;80;29840;-60
2021/03/26 13:07:55;;;;;;;35.30;22.27;;;;;;;17.54;43.02;100597.91;2236438;78;32051;-68
2021/03/26 13:11:25;;;;;;;30.92;21.02;;;;;;;17.59;43.13;100597.05;2221969;80;33105;-68
2021/03/26 13:14:53;;;;;;;35.05;20.50;;;;;;;17.69;43.25;100595.41;2262346;78;29779;-72
2021/03/26 13:18:09;;;;;;;36.83;20.65;;;;;;;17.74;42.87;100592.34;2262406;78;27734;-68
2021/03/26 13:21:25;;;;;;;29.72;17.25;;;;;;;17.82;43.30;100585.84;2201760;80;29213;-66
2021/03/26 13:24:51;;;;;;;27.62;18.12;;;;;;;17.97;42.98;100578.39;2070541;85;31183;-68
2021/03/26 13:28:05;;;;;;;27.22;17.37;;;;;;;18.09;42.43;100580.70;2065343;85;34977;-67
2021/03/26 13:31:17;;;;;;;29.07;16.50;;;;;;;17.95;42.36;100541.05;2130935;83;28041;-62
2021/03/26 13:34:32;;;;;;;32.37;20.47;;;;;;;18.26;42.43;100574.45;2192073;78;37315;-70
2021/03/26 13:37:38;;;;;;;29.05;18.45;;;;;;;18.33;42.33;100579.28;2192957;80;27790;-65
2021/03/26 13:40:43;;;;;;;28.30;17.02;;;;;;;18.36;42.33;100576.34;2188953;80;28812;-73
2021/03/26 13:43:51;;;;;;;24.32;13.78;;;;;;;18.19;42.22;100538.31;2212537;79;32299;-64
2021/03/26 13:47:17;;;;;;;20.45;11.80;;;;;;;18.33;41.95;100560.77;2227910;79;33967;-68
2021/03/26 13:50:48;;;;;;;32.40;17.00;;;;;;;18.39;41.80;100567.09;2216182;79;32082;-67
2021/03/26 13:54:01;;;;;;;22.70;15.05;;;;;;;18.48;42.23;100560.92;2202741;79;27888;-74
2021/03/26 13:57:37;;;;;;;22.17;13.13;;;;;;;18.56;41.53;100563.02;2179007;79;27686;-69
2021/03/26 14:01:03;;;;;;;25.30;16.32;;;;;;;18.67;40.67;100556.27;2205063;80;27637;-68
2021/03/26 14:04:23;;;;;;;20.90;13.58;;;;;;;18.67;40.67;100556.27;2185472;80;33402;-68
2021/03/26 14:07:33;;;;;;;22.32;15.35;;;;;;;18.67;39.36;100554.91;2180781;80;29765;-69
2021/03/26 14:10:59;;;;;;;22.32;15.23;;;;;;;18.66;39.56;100550.47;2185515;80;27738;-73
2021/03/26 14:14:19;;;;;;;28.55;14.13;;;;;;;18.62;39.16;100515.53;2179039;81;28799;-72
2021/03/26 14:17:44;;;;;;;25.52;14.23;;;;;;;18.62;39.16;100515.53;2181735;80;32131;-71
2021/03/26 14:20:52;;;;;;;25.23;14.95;;;;;;;18.79;39.21;100538.63;2204857;80;33140;-70
2021/03/26 14:23:57;;;;;;;26.90;15.78;;;;;;;18.78;38.60;100531.47;2207864;80;28845;-72
2021/03/26 14:27:22;;;;;;;21.87;14.07;;;;;;;18.77;38.91;100533.33;2199828;80;28240;-69
2021/03/26 14:30:42;;;;;;;;;;;;;;;18.78;38.90;100528.75;2202364;80;28840;-69
2021/03/26 14:33:57;;;;;;;36.28;18.77;;;;;;;18.70;38.78;100528.52;2186792;80;32432;-71
2021/03/26 14:37:15;;;;;;;23.62;14.28;;;;;;;18.68;39.13;100525.44;2170432;80;28423;-71
2021/03/26 14:40:26;;;;;;;23.70;13.88;;;;;;;18.70;39.43;100515.80;2194745;78;28855;-71
2021/03/26 14:43:39;;;;;;;20.90;14.07;;;;;;;18.67;39.20;100518.75;2197030;79;27832;-70
2021/03/26 14:46:58;;;;;;;20.08;12.15;;;;;;;18.46;39.27;100501.00;2168596;80;27744;-74
2021/03/26 14:54:26;;;;;;;22.10;13.43;;;;;;;18.59;39.75;100511.23;2353717;74;27597;-69
2021/03/26 14:57:37;;;;;;;;;;;;;;;18.54;39.86;100514.80;2316882;75;27727;-71
2021/03/26 15:00:56;;;;;;;27.90;17.25;;;;;;;18.54;39.86;100517.51;2316227;75;28802;-69
2021/03/26 15:04:28;;;;;;;22.75;16.32;;;;;;;18.56;39.61;100510.63;2234191;77;32289;-68
2021/03/26 15:07:36;;;;;;;42.13;23.92;;;;;;;18.50;39.51;100523.69;2124898;83;27666;-64